createdAt,value
2018-07-23T13:53:44.832Z,13.70
2018-07-23T13:57:12.974Z,11.48
2018-07-23T13:59:42.413Z,8.43
2018-07-23T14:02:14.429Z,9.13
2018-07-23T14:04:43.344Z,8.00
2018-07-23T14:07:12.138Z,8.13
2018-07-23T14:09:41.309Z,7.80
2018-07-23T14:12:10.518Z,7.83
2018-07-23T14:14:39.317Z,8.93
2018-07-23T14:19:59.255Z,9.20
2018-07-23T14:22:28.523Z,9.57
2018-07-23T14:24:57.966Z,10.57
2018-07-23T14:27:26.800Z,9.43
2018-07-23T14:29:55.956Z,10.03
2018-07-23T14:32:25.184Z,9.83
2018-07-23T14:34:54.091Z,9.43
2018-07-23T14:37:22.908Z,9.23
2018-07-23T14:39:51.732Z,8.53
2018-07-23T14:42:20.903Z,8.10
2018-07-23T14:44:49.920Z,9.13
2018-07-23T14:47:18.804Z,8.10
2018-07-23T14:49:48.033Z,7.00
2018-07-23T14:52:17.324Z,7.90
2018-07-23T14:54:46.829Z,8.33
2018-07-23T14:57:15.963Z,7.23
2018-07-23T14:59:44.803Z,7.90
2018-07-23T15:02:14.228Z,8.33
2018-07-23T15:04:43.030Z,7.60
2018-07-23T15:07:12.180Z,8.50
2018-07-23T15:09:42.240Z,8.20
2018-07-23T15:12:11.434Z,8.70
2018-07-23T15:14:40.571Z,8.20
2018-07-23T15:17:10.297Z,7.77
2018-07-23T15:19:39.137Z,7.50
2018-07-23T15:22:07.938Z,7.20
2018-07-23T15:24:37.084Z,7.57
2018-07-23T15:27:06.309Z,7.40
2018-07-23T15:29:35.153Z,7.13
2018-07-23T15:32:04.181Z,7.20
2018-07-23T15:34:33.567Z,8.17
2018-07-23T15:37:02.364Z,7.00
2018-07-23T15:39:31.180Z,6.70
2018-07-23T15:42:01.650Z,6.97
2018-07-23T15:44:31.074Z,6.93
2018-07-23T15:47:00.213Z,7.03
2018-07-23T15:49:29.820Z,7.00
2018-07-23T15:51:58.658Z,6.40
2018-07-23T15:54:28.096Z,6.53
2018-07-23T15:56:57.512Z,5.90
2018-07-23T15:59:26.313Z,6.27
2018-07-23T16:01:55.283Z,7.30
2018-07-23T16:04:24.523Z,6.30
2018-07-23T16:06:53.660Z,7.30
2018-07-23T16:09:23.380Z,6.37
2018-07-23T16:11:52.184Z,6.50
2018-07-23T16:14:20.998Z,6.60
2018-07-23T16:16:50.181Z,7.13
2018-07-23T16:19:19.487Z,7.40
2018-07-23T16:21:48.268Z,7.13
2018-07-23T16:24:17.340Z,7.80
2018-07-23T16:26:46.144Z,7.30
2018-07-23T16:29:15.321Z,7.50
2018-07-23T16:31:44.376Z,8.00
2018-07-23T16:34:13.177Z,7.07
2018-07-23T16:36:44.207Z,7.30
2018-07-23T16:39:14.339Z,6.90
2018-07-23T16:41:43.811Z,7.80
2018-07-23T16:44:12.599Z,7.80
2018-07-23T16:46:41.980Z,7.13
2018-07-23T16:49:15.860Z,6.40
2018-07-23T16:51:44.998Z,6.63
2018-07-23T16:54:13.854Z,6.47
2018-07-23T16:56:42.808Z,6.53
2018-07-23T16:59:11.618Z,7.20
2018-07-23T17:01:40.636Z,6.80
2018-07-23T17:04:09.443Z,8.07
2018-07-23T17:06:38.627Z,7.70
2018-07-23T17:09:09.196Z,7.67
2018-07-23T17:11:38.351Z,7.60
2018-07-23T17:14:07.895Z,7.80
2018-07-23T17:16:37.035Z,8.17
2018-07-23T17:19:06.778Z,8.47
2018-07-23T17:21:35.805Z,8.40
2018-07-23T17:24:07.551Z,8.03
2018-07-23T17:26:37.128Z,8.10
2018-07-23T17:29:05.932Z,8.07
2018-07-23T17:31:34.948Z,8.37
2018-07-23T17:34:05.729Z,8.40
2018-07-23T17:36:37.161Z,8.33
2018-07-23T17:39:09.252Z,8.50
2018-07-23T17:41:38.385Z,8.80
2018-07-23T17:44:07.628Z,8.73
2018-07-23T17:46:38.072Z,8.67
2018-07-23T17:49:09.008Z,9.17
2018-07-23T17:51:37.828Z,8.70
2018-07-23T17:54:07.295Z,9.67
2018-07-23T17:56:36.655Z,10.10
2018-07-23T17:59:05.823Z,7.40
2018-07-23T18:01:35.241Z,8.47
2018-07-23T18:04:04.503Z,8.20
2018-07-23T18:06:33.784Z,9.50
2018-07-23T18:09:02.668Z,8.70
2018-07-23T18:11:32.550Z,9.40
2018-07-23T18:14:04.023Z,11.90
2018-07-23T18:16:32.888Z,10.53
2018-07-23T18:19:01.820Z,9.93
2018-07-23T18:21:55.760Z,10.10
2018-07-23T18:24:42.899Z,9.33
2018-07-23T18:27:12.796Z,11.03
2018-07-23T18:29:42.204Z,9.87
2018-07-23T18:32:17.030Z,11.13
2018-07-23T18:34:49.749Z,11.40
2018-07-23T18:37:19.192Z,11.07
2018-07-23T18:39:48.276Z,11.47
2018-07-23T18:42:17.851Z,11.73
2018-07-23T18:44:46.704Z,11.87
2018-07-23T18:47:15.528Z,13.07
2018-07-23T18:49:57.338Z,13.57
2018-07-23T18:52:50.142Z,15.20
2018-07-23T18:55:18.992Z,14.73
2018-07-23T18:57:48.244Z,12.50
2018-07-23T19:00:17.652Z,11.70
2018-07-23T19:02:46.487Z,11.10
2018-07-23T19:05:15.346Z,10.90
2018-07-23T19:07:44.175Z,11.37
2018-07-23T19:10:16.154Z,12.40
2018-07-23T19:12:45.651Z,11.70
2018-07-23T19:15:14.715Z,12.23
2018-07-23T19:17:43.572Z,12.10
2018-07-23T19:20:13.018Z,12.43
2018-07-23T19:22:44.244Z,12.23
2018-07-23T19:25:13.374Z,11.70
2018-07-23T19:27:45.461Z,11.37
2018-07-23T19:30:14.411Z,11.97
2018-07-23T19:32:43.539Z,11.43
2018-07-23T19:35:12.417Z,11.83
2018-07-23T19:37:43.126Z,11.37
2018-07-23T19:40:12.464Z,10.57
2018-07-23T19:42:41.376Z,10.97
2018-07-23T19:45:10.039Z,10.67
2018-07-23T19:47:39.557Z,10.80
2018-07-23T19:50:09.218Z,11.40
2018-07-23T19:52:39.491Z,11.43
2018-07-23T19:55:09.014Z,10.70
2018-07-23T19:57:38.058Z,9.83
2018-07-23T20:00:13.448Z,8.93
2018-07-23T20:02:42.379Z,7.80
2018-07-23T20:05:11.730Z,8.20
2018-07-23T20:07:44.664Z,7.70
2018-07-23T20:10:15.430Z,8.70
2018-07-23T20:12:44.667Z,8.70
2018-07-23T20:15:15.368Z,8.60
2018-07-23T20:17:44.568Z,9.90
2018-07-23T20:20:14.600Z,9.93
2018-07-23T20:22:44.037Z,10.43
2018-07-23T20:25:13.565Z,10.03
2018-07-23T20:27:42.595Z,9.83
2018-07-23T20:30:11.892Z,10.07
2018-07-23T20:32:41.501Z,9.93
2018-07-23T20:35:11.091Z,9.57
2018-07-23T20:37:50.305Z,10.03
2018-07-23T20:40:25.597Z,10.07
2018-07-23T20:42:55.223Z,9.70
2018-07-23T20:45:25.139Z,9.80
2018-07-23T20:48:10.847Z,9.57
2018-07-23T20:50:39.651Z,9.37
2018-07-23T20:53:09.157Z,8.97
2018-07-23T20:55:38.104Z,9.30
2018-07-23T20:58:07.138Z,8.20
2018-07-23T21:00:36.408Z,8.67
2018-07-23T21:03:06.973Z,9.10
2018-07-23T21:05:36.364Z,8.73
2018-07-23T21:08:05.900Z,7.80
2018-07-23T21:10:34.760Z,8.40
2018-07-23T21:13:04.628Z,8.67
2018-07-23T21:15:33.883Z,8.53
2018-07-23T21:18:02.804Z,8.10
2018-07-23T21:20:31.927Z,8.00
2018-07-23T21:23:02.397Z,7.80
2018-07-23T21:25:31.487Z,8.27
2018-07-23T21:28:03.541Z,8.10
2018-07-23T21:30:33.080Z,7.93
2018-07-23T21:33:01.987Z,7.30
2018-07-23T21:35:31.567Z,7.50
2018-07-23T21:38:00.939Z,7.53
2018-07-23T21:40:30.715Z,7.60
2018-07-23T21:42:59.723Z,7.50
2018-07-23T21:45:28.632Z,8.40
2018-07-23T21:47:57.505Z,8.53
2018-07-23T21:50:26.859Z,8.20
2018-07-23T21:52:56.183Z,8.80
2018-07-23T21:55:25.375Z,8.10
2018-07-23T21:57:54.399Z,8.50
2018-07-23T22:00:23.691Z,9.03
2018-07-23T22:02:52.907Z,8.97
2018-07-23T22:05:22.411Z,8.57
2018-07-23T22:07:51.257Z,8.27
2018-07-23T22:10:20.157Z,7.83
2018-07-23T22:12:49.277Z,7.83
2018-07-23T22:15:18.240Z,8.07
2018-07-23T22:17:47.433Z,8.47
2018-07-23T22:20:16.569Z,8.40
2018-07-23T22:22:46.781Z,8.50
2018-07-23T22:28:27.160Z,9.23
2018-07-23T22:30:56.351Z,9.13
2018-07-23T22:33:25.180Z,9.40
2018-07-23T22:35:54.367Z,8.30
2018-07-23T22:38:23.511Z,9.97
2018-07-23T22:40:52.371Z,10.30
2018-07-23T22:43:21.755Z,10.60
2018-07-23T22:45:54.434Z,10.23
2018-07-23T22:48:29.352Z,9.90
2018-07-23T22:50:58.308Z,10.07
2018-07-23T22:53:40.248Z,10.57
2018-07-23T22:56:09.766Z,10.07
2018-07-23T22:58:38.580Z,9.70
2018-07-23T23:01:07.414Z,9.57
2018-07-23T23:03:36.255Z,9.60
2018-07-23T23:06:05.412Z,9.67
2018-07-23T23:08:34.230Z,10.80
2018-07-23T23:11:03.251Z,10.20
2018-07-23T23:13:32.890Z,10.87
2018-07-23T23:16:02.285Z,10.70
2018-07-23T23:18:31.149Z,11.57
2018-07-23T23:21:00.357Z,10.90
2018-07-23T23:23:29.535Z,10.20
2018-07-23T23:25:58.359Z,10.10
2018-07-23T23:28:27.736Z,11.70
2018-07-23T23:30:56.576Z,10.80
2018-07-23T23:33:31.184Z,11.40
2018-07-23T23:36:00.560Z,11.13
2018-07-23T23:38:29.377Z,10.70
2018-07-23T23:40:58.195Z,11.70
2018-07-23T23:43:28.168Z,11.93
2018-07-23T23:45:56.975Z,12.10
2018-07-23T23:48:30.274Z,11.73
2018-07-23T23:50:59.145Z,11.80
2018-07-23T23:53:28.264Z,11.90
2018-07-23T23:55:57.692Z,10.67
2018-07-23T23:58:26.944Z,10.87
